sensor_id;sensor_type;location;lat;lon;timestamp;P1;durP1;ratioP1;P2;durP2;ratioP2
14209;SDS011;7188;56.070;12.698;2022-09-12T00:00:11;4.50;;;2.57;;
14209;SDS011;7188;56.070;12.698;2022-09-12T00:02:39;3.37;;;2.70;;
14209;SDS011;7188;56.070;12.698;2022-09-12T00:05:05;2.60;;;2.33;;
14209;SDS011;7188;56.070;12.698;2022-09-12T00:07:31;2.90;;;2.47;;
14209;SDS011;7188;56.070;12.698;2022-09-12T00:09:57;3.23;;;2.50;;
14209;SDS011;7188;56.070;12.698;2022-09-12T00:12:23;3.07;;;2.73;;
14209;SDS011;7188;56.070;12.698;2022-09-12T00:14:49;2.57;;;2.30;;
14209;SDS011;7188;56.070;12.698;2022-09-12T00:17:14;3.00;;;2.57;;
14209;SDS011;7188;56.070;12.698;2022-09-12T00:19:40;2.97;;;2.67;;
14209;SDS011;7188;56.070;12.698;2022-09-12T00:22:05;2.50;;;2.30;;
14209;SDS011;7188;56.070;12.698;2022-09-12T00:24:31;3.50;;;2.30;;
14209;SDS011;7188;56.070;12.698;2022-09-12T00:26:58;4.50;;;2.97;;
14209;SDS011;7188;56.070;12.698;2022-09-12T00:29:33;2.47;;;2.27;;
14209;SDS011;7188;56.070;12.698;2022-09-12T00:31:58;2.83;;;2.60;;
14209;SDS011;7188;56.070;12.698;2022-09-12T00:34:24;2.50;;;2.30;;
14209;SDS011;7188;56.070;12.698;2022-09-12T00:36:50;3.17;;;2.50;;
14209;SDS011;7188;56.070;12.698;2022-09-12T00:39:15;3.07;;;2.27;;
14209;SDS011;7188;56.070;12.698;2022-09-12T00:41:42;2.37;;;2.17;;
14209;SDS011;7188;56.070;12.698;2022-09-12T00:46:56;3.30;;;3.00;;
14209;SDS011;7188;56.070;12.698;2022-09-12T00:52:21;3.13;;;2.70;;
14209;SDS011;7188;56.070;12.698;2022-09-12T00:54:56;2.97;;;2.77;;
14209;SDS011;7188;56.070;12.698;2022-09-12T01:00:17;2.90;;;2.60;;
14209;SDS011;7188;56.070;12.698;2022-09-12T01:05:39;2.27;;;2.07;;
14209;SDS011;7188;56.070;12.698;2022-09-12T01:08:33;3.40;;;2.70;;
14209;SDS011;7188;56.070;12.698;2022-09-12T01:11:01;3.40;;;3.03;;
14209;SDS011;7188;56.070;12.698;2022-09-12T01:13:28;3.43;;;3.13;;
14209;SDS011;7188;56.070;12.698;2022-09-12T01:15:54;5.23;;;2.20;;
14209;SDS011;7188;56.070;12.698;2022-09-12T01:18:24;3.80;;;2.90;;
14209;SDS011;7188;56.070;12.698;2022-09-12T01:21:10;3.77;;;2.93;;
14209;SDS011;7188;56.070;12.698;2022-09-12T01:32:50;2.93;;;2.73;;
14209;SDS011;7188;56.070;12.698;2022-09-12T01:38:19;4.40;;;3.00;;
14209;SDS011;7188;56.070;12.698;2022-09-12T01:43:57;3.10;;;2.70;;
14209;SDS011;7188;56.070;12.698;2022-09-12T01:49:14;2.47;;;2.27;;
14209;SDS011;7188;56.070;12.698;2022-09-12T01:52:07;2.20;;;2.10;;
14209;SDS011;7188;56.070;12.698;2022-09-12T01:55:00;3.00;;;2.80;;
14209;SDS011;7188;56.070;12.698;2022-09-12T01:57:40;2.50;;;2.30;;
14209;SDS011;7188;56.070;12.698;2022-09-12T02:00:29;2.77;;;2.53;;
14209;SDS011;7188;56.070;12.698;2022-09-12T02:02:59;3.10;;;2.90;;
14209;SDS011;7188;56.070;12.698;2022-09-12T02:08:06;2.40;;;2.30;;
14209;SDS011;7188;56.070;12.698;2022-09-12T02:16:15;2.70;;;2.50;;
14209;SDS011;7188;56.070;12.698;2022-09-12T02:18:58;2.97;;;2.20;;
14209;SDS011;7188;56.070;12.698;2022-09-12T02:21:29;4.00;;;3.70;;
14209;SDS011;7188;56.070;12.698;2022-09-12T02:23:57;4.17;;;2.60;;
14209;SDS011;7188;56.070;12.698;2022-09-12T02:26:37;3.13;;;2.87;;
14209;SDS011;7188;56.070;12.698;2022-09-12T02:29:08;3.90;;;3.50;;
14209;SDS011;7188;56.070;12.698;2022-09-12T02:34:20;4.37;;;2.50;;
14209;SDS011;7188;56.070;12.698;2022-09-12T02:37:17;3.13;;;2.93;;
14209;SDS011;7188;56.070;12.698;2022-09-12T02:40:04;3.00;;;2.70;;
14209;SDS011;7188;56.070;12.698;2022-09-12T02:42:32;3.23;;;2.80;;
14209;SDS011;7188;56.070;12.698;2022-09-12T02:44:59;2.40;;;2.20;;
14209;SDS011;7188;56.070;12.698;2022-09-12T02:47:30;2.80;;;2.60;;
14209;SDS011;7188;56.070;12.698;2022-09-12T02:50:01;3.13;;;2.50;;
14209;SDS011;7188;56.070;12.698;2022-09-12T02:52:29;3.40;;;3.20;;
14209;SDS011;7188;56.070;12.698;2022-09-12T02:54:56;2.73;;;2.53;;
14209;SDS011;7188;56.070;12.698;2022-09-12T02:57:22;4.07;;;2.97;;
14209;SDS011;7188;56.070;12.698;2022-09-12T02:59:48;3.90;;;2.50;;
14209;SDS011;7188;56.070;12.698;2022-09-12T03:03:01;3.20;;;2.93;;
14209;SDS011;7188;56.070;12.698;2022-09-12T03:13:48;4.33;;;3.03;;
14209;SDS011;7188;56.070;12.698;2022-09-12T03:22:38;2.80;;;2.60;;
14209;SDS011;7188;56.070;12.698;2022-09-12T03:25:17;2.60;;;2.40;;
14209;SDS011;7188;56.070;12.698;2022-09-12T03:30:18;2.93;;;2.63;;
14209;SDS011;7188;56.070;12.698;2022-09-12T03:32:47;3.03;;;2.70;;
14209;SDS011;7188;56.070;12.698;2022-09-12T03:35:15;4.23;;;2.43;;
14209;SDS011;7188;56.070;12.698;2022-09-12T03:37:42;4.57;;;2.80;;
14209;SDS011;7188;56.070;12.698;2022-09-12T03:40:10;3.30;;;3.00;;
14209;SDS011;7188;56.070;12.698;2022-09-12T03:42:36;3.57;;;3.07;;
14209;SDS011;7188;56.070;12.698;2022-09-12T03:45:03;3.13;;;2.83;;
14209;SDS011;7188;56.070;12.698;2022-09-12T03:47:30;2.50;;;2.30;;
14209;SDS011;7188;56.070;12.698;2022-09-12T03:49:56;3.40;;;3.13;;
14209;SDS011;7188;56.070;12.698;2022-09-12T03:52:21;4.70;;;2.63;;
14209;SDS011;7188;56.070;12.698;2022-09-12T03:54:47;5.20;;;3.70;;
14209;SDS011;7188;56.070;12.698;2022-09-12T03:57:16;6.00;;;4.17;;
14209;SDS011;7188;56.070;12.698;2022-09-12T03:59:41;3.70;;;3.30;;
14209;SDS011;7188;56.070;12.698;2022-09-12T04:02:07;3.87;;;3.40;;
14209;SDS011;7188;56.070;12.698;2022-09-12T04:04:36;4.10;;;3.70;;
14209;SDS011;7188;56.070;12.698;2022-09-12T04:07:02;3.03;;;2.73;;
14209;SDS011;7188;56.070;12.698;2022-09-12T04:09:27;4.23;;;3.87;;
14209;SDS011;7188;56.070;12.698;2022-09-12T04:11:53;4.90;;;3.23;;
14209;SDS011;7188;56.070;12.698;2022-09-12T04:14:19;3.63;;;3.13;;
14209;SDS011;7188;56.070;12.698;2022-09-12T04:16:44;3.77;;;3.07;;
14209;SDS011;7188;56.070;12.698;2022-09-12T04:19:10;3.50;;;3.13;;
14209;SDS011;7188;56.070;12.698;2022-09-12T04:21:36;4.07;;;3.13;;
14209;SDS011;7188;56.070;12.698;2022-09-12T04:24:02;3.37;;;3.07;;
14209;SDS011;7188;56.070;12.698;2022-09-12T04:26:27;3.73;;;3.30;;
14209;SDS011;7188;56.070;12.698;2022-09-12T04:28:54;3.77;;;3.30;;
14209;SDS011;7188;56.070;12.698;2022-09-12T04:31:21;4.40;;;4.00;;
14209;SDS011;7188;56.070;12.698;2022-09-12T04:33:54;3.40;;;3.20;;
14209;SDS011;7188;56.070;12.698;2022-09-12T04:36:22;3.43;;;2.40;;
14209;SDS011;7188;56.070;12.698;2022-09-12T04:38:48;3.30;;;3.07;;
14209;SDS011;7188;56.070;12.698;2022-09-12T04:41:18;16.13;;;6.17;;
14209;SDS011;7188;56.070;12.698;2022-09-12T04:43:46;6.03;;;3.77;;
14209;SDS011;7188;56.070;12.698;2022-09-12T04:46:13;6.30;;;4.17;;
14209;SDS011;7188;56.070;12.698;2022-09-12T04:48:41;5.40;;;4.43;;
14209;SDS011;7188;56.070;12.698;2022-09-12T04:51:11;5.60;;;3.73;;
14209;SDS011;7188;56.070;12.698;2022-09-12T04:53:39;3.93;;;3.27;;
14209;SDS011;7188;56.070;12.698;2022-09-12T04:56:05;3.83;;;3.37;;
14209;SDS011;7188;56.070;12.698;2022-09-12T04:58:32;3.30;;;2.73;;
14209;SDS011;7188;56.070;12.698;2022-09-12T05:03:35;4.07;;;3.43;;
14209;SDS011;7188;56.070;12.698;2022-09-12T05:06:08;5.20;;;2.90;;
14209;SDS011;7188;56.070;12.698;2022-09-12T05:08:36;3.50;;;3.20;;
14209;SDS011;7188;56.070;12.698;2022-09-12T05:11:05;6.03;;;3.53;;
14209;SDS011;7188;56.070;12.698;2022-09-12T05:13:32;4.87;;;3.40;;
14209;SDS011;7188;56.070;12.698;2022-09-12T05:15:59;3.27;;;2.87;;
14209;SDS011;7188;56.070;12.698;2022-09-12T05:18:26;6.23;;;3.17;;
14209;SDS011;7188;56.070;12.698;2022-09-12T05:20:52;4.00;;;2.93;;
14209;SDS011;7188;56.070;12.698;2022-09-12T05:23:19;3.40;;;2.67;;
14209;SDS011;7188;56.070;12.698;2022-09-12T05:25:48;4.13;;;2.77;;
14209;SDS011;7188;56.070;12.698;2022-09-12T05:28:18;6.90;;;3.60;;
14209;SDS011;7188;56.070;12.698;2022-09-12T05:30:45;9.20;;;5.53;;
14209;SDS011;7188;56.070;12.698;2022-09-12T05:33:11;5.87;;;4.90;;
14209;SDS011;7188;56.070;12.698;2022-09-12T05:35:37;6.37;;;5.77;;
14209;SDS011;7188;56.070;12.698;2022-09-12T05:38:04;4.73;;;4.20;;
14209;SDS011;7188;56.070;12.698;2022-09-12T05:40:30;7.00;;;5.53;;
14209;SDS011;7188;56.070;12.698;2022-09-12T05:42:57;5.17;;;4.67;;
14209;SDS011;7188;56.070;12.698;2022-09-12T05:45:22;6.70;;;5.00;;
14209;SDS011;7188;56.070;12.698;2022-09-12T05:47:48;8.17;;;4.47;;
14209;SDS011;7188;56.070;12.698;2022-09-12T05:50:14;6.77;;;4.77;;
14209;SDS011;7188;56.070;12.698;2022-09-12T05:52:39;5.13;;;4.63;;
14209;SDS011;7188;56.070;12.698;2022-09-12T05:55:06;10.70;;;5.30;;
14209;SDS011;7188;56.070;12.698;2022-09-12T05:57:42;7.13;;;3.67;;
14209;SDS011;7188;56.070;12.698;2022-09-12T06:00:10;5.70;;;4.60;;
14209;SDS011;7188;56.070;12.698;2022-09-12T06:02:37;4.83;;;4.30;;
14209;SDS011;7188;56.070;12.698;2022-09-12T06:05:05;16.47;;;5.43;;
14209;SDS011;7188;56.070;12.698;2022-09-12T06:07:31;10.07;;;6.17;;
14209;SDS011;7188;56.070;12.698;2022-09-12T06:09:57;7.47;;;5.43;;
14209;SDS011;7188;56.070;12.698;2022-09-12T06:12:23;7.60;;;5.40;;
14209;SDS011;7188;56.070;12.698;2022-09-12T06:14:50;5.93;;;4.30;;
14209;SDS011;7188;56.070;12.698;2022-09-12T06:17:16;6.20;;;4.90;;
14209;SDS011;7188;56.070;12.698;2022-09-12T06:19:42;5.83;;;5.07;;
14209;SDS011;7188;56.070;12.698;2022-09-12T06:22:09;5.40;;;4.57;;
14209;SDS011;7188;56.070;12.698;2022-09-12T06:24:35;9.17;;;5.10;;
14209;SDS011;7188;56.070;12.698;2022-09-12T06:27:01;5.77;;;5.00;;
14209;SDS011;7188;56.070;12.698;2022-09-12T06:29:26;7.43;;;5.27;;
14209;SDS011;7188;56.070;12.698;2022-09-12T06:31:53;7.73;;;4.43;;
14209;SDS011;7188;56.070;12.698;2022-09-12T06:34:19;5.97;;;4.97;;
14209;SDS011;7188;56.070;12.698;2022-09-12T06:36:45;9.73;;;5.37;;
14209;SDS011;7188;56.070;12.698;2022-09-12T06:39:16;6.00;;;5.00;;
14209;SDS011;7188;56.070;12.698;2022-09-12T06:41:46;8.87;;;5.33;;
14209;SDS011;7188;56.070;12.698;2022-09-12T06:44:16;6.07;;;5.43;;
14209;SDS011;7188;56.070;12.698;2022-09-12T06:46:43;7.43;;;4.73;;
14209;SDS011;7188;56.070;12.698;2022-09-12T06:49:09;9.50;;;5.53;;
14209;SDS011;7188;56.070;12.698;2022-09-12T06:51:35;7.10;;;4.37;;
14209;SDS011;7188;56.070;12.698;2022-09-12T06:54:01;7.20;;;4.80;;
14209;SDS011;7188;56.070;12.698;2022-09-12T06:56:28;6.17;;;5.03;;
14209;SDS011;7188;56.070;12.698;2022-09-12T06:58:54;6.10;;;4.13;;
14209;SDS011;7188;56.070;12.698;2022-09-12T07:01:22;6.03;;;3.83;;
14209;SDS011;7188;56.070;12.698;2022-09-12T07:03:53;5.90;;;4.30;;
14209;SDS011;7188;56.070;12.698;2022-09-12T07:06:21;5.70;;;3.53;;
14209;SDS011;7188;56.070;12.698;2022-09-12T07:08:56;2.70;;;2.07;;
14209;SDS011;7188;56.070;12.698;2022-09-12T07:11:27;4.77;;;3.20;;
14209;SDS011;7188;56.070;12.698;2022-09-12T07:13:56;4.93;;;2.67;;
14209;SDS011;7188;56.070;12.698;2022-09-12T07:16:23;4.13;;;2.27;;
14209;SDS011;7188;56.070;12.698;2022-09-12T07:18:53;6.87;;;2.60;;
14209;SDS011;7188;56.070;12.698;2022-09-12T07:21:20;4.23;;;2.33;;
14209;SDS011;7188;56.070;12.698;2022-09-12T07:23:46;3.00;;;2.03;;
14209;SDS011;7188;56.070;12.698;2022-09-12T07:26:13;3.33;;;1.73;;
14209;SDS011;7188;56.070;12.698;2022-09-12T07:28:41;3.07;;;2.13;;
14209;SDS011;7188;56.070;12.698;2022-09-12T07:31:11;3.83;;;1.73;;
14209;SDS011;7188;56.070;12.698;2022-09-12T07:33:39;2.53;;;1.50;;
14209;SDS011;7188;56.070;12.698;2022-09-12T07:36:06;2.20;;;1.47;;
14209;SDS011;7188;56.070;12.698;2022-09-12T07:38:39;3.78;;;3.10;;
14209;SDS011;7188;56.070;12.698;2022-09-12T07:41:18;4.07;;;3.70;;
14209;SDS011;7188;56.070;12.698;2022-09-12T07:43:46;4.87;;;3.27;;
14209;SDS011;7188;56.070;12.698;2022-09-12T07:46:12;3.43;;;3.23;;
14209;SDS011;7188;56.070;12.698;2022-09-12T07:48:39;4.40;;;3.00;;
14209;SDS011;7188;56.070;12.698;2022-09-12T07:51:06;4.47;;;2.60;;
14209;SDS011;7188;56.070;12.698;2022-09-12T07:53:35;3.87;;;3.47;;
14209;SDS011;7188;56.070;12.698;2022-09-12T07:56:05;3.57;;;3.17;;
14209;SDS011;7188;56.070;12.698;2022-09-12T07:58:33;2.90;;;2.60;;
14209;SDS011;7188;56.070;12.698;2022-09-12T08:01:03;3.33;;;2.55;;
14209;SDS011;7188;56.070;12.698;2022-09-12T08:03:31;4.33;;;3.10;;
14209;SDS011;7188;56.070;12.698;2022-09-12T08:06:06;3.83;;;2.90;;
14209;SDS011;7188;56.070;12.698;2022-09-12T08:08:38;2.78;;;2.47;;
14209;SDS011;7188;56.070;12.698;2022-09-12T08:11:05;2.80;;;2.37;;
14209;SDS011;7188;56.070;12.698;2022-09-12T08:13:33;2.33;;;2.13;;
14209;SDS011;7188;56.070;12.698;2022-09-12T08:16:04;3.83;;;2.13;;
14209;SDS011;7188;56.070;12.698;2022-09-12T08:18:37;2.70;;;2.00;;
14209;SDS011;7188;56.070;12.698;2022-09-12T08:21:04;3.97;;;2.37;;
14209;SDS011;7188;56.070;12.698;2022-09-12T08:23:31;2.85;;;2.65;;
14209;SDS011;7188;56.070;12.698;2022-09-12T08:25:58;2.97;;;2.77;;
14209;SDS011;7188;56.070;12.698;2022-09-12T08:28:25;2.60;;;2.40;;
14209;SDS011;7188;56.070;12.698;2022-09-12T08:30:51;5.37;;;3.13;;
14209;SDS011;7188;56.070;12.698;2022-09-12T08:33:18;2.60;;;2.20;;
14209;SDS011;7188;56.070;12.698;2022-09-12T08:35:44;2.05;;;1.85;;
14209;SDS011;7188;56.070;12.698;2022-09-12T08:38:09;5.70;;;2.50;;
14209;SDS011;7188;56.070;12.698;2022-09-12T08:40:56;1.97;;;1.87;;
14209;SDS011;7188;56.070;12.698;2022-09-12T08:46:31;2.17;;;1.97;;
14209;SDS011;7188;56.070;12.698;2022-09-12T08:53:17;3.93;;;1.83;;
14209;SDS011;7188;56.070;12.698;2022-09-12T08:55:57;2.75;;;1.65;;
14209;SDS011;7188;56.070;12.698;2022-09-12T08:58:25;2.77;;;1.77;;
14209;SDS011;7188;56.070;12.698;2022-09-12T09:17:12;2.03;;;1.73;;
14209;SDS011;7188;56.070;12.698;2022-09-12T09:19:52;2.10;;;1.15;;
14209;SDS011;7188;56.070;12.698;2022-09-12T09:22:28;5.00;;;1.55;;
14209;SDS011;7188;56.070;12.698;2022-09-12T09:25:42;1.60;;;1.40;;
14209;SDS011;7188;56.070;12.698;2022-09-12T09:28:21;4.65;;;1.50;;
14209;SDS011;7188;56.070;12.698;2022-09-12T09:30:51;1.23;;;1.13;;
14209;SDS011;7188;56.070;12.698;2022-09-12T09:33:27;2.22;;;1.55;;
14209;SDS011;7188;56.070;12.698;2022-09-12T09:41:05;1.80;;;1.70;;
14209;SDS011;7188;56.070;12.698;2022-09-12T09:43:36;2.85;;;1.55;;
14209;SDS011;7188;56.070;12.698;2022-09-12T09:46:02;1.85;;;1.45;;
14209;SDS011;7188;56.070;12.698;2022-09-12T09:48:29;2.45;;;1.30;;
14209;SDS011;7188;56.070;12.698;2022-09-12T09:50:57;3.55;;;1.63;;
14209;SDS011;7188;56.070;12.698;2022-09-12T09:54:08;1.60;;;1.00;;
14209;SDS011;7188;56.070;12.698;2022-09-12T09:56:28;2.97;;;1.10;;
14209;SDS011;7188;56.070;12.698;2022-09-12T09:59:09;0.93;;;0.90;;
14209;SDS011;7188;56.070;12.698;2022-09-12T10:01:42;1.00;;;0.95;;
14209;SDS011;7188;56.070;12.698;2022-09-12T10:04:28;1.25;;;1.15;;
14209;SDS011;7188;56.070;12.698;2022-09-12T10:06:56;0.77;;;0.77;;
14209;SDS011;7188;56.070;12.698;2022-09-12T10:09:30;1.58;;;0.98;;
14209;SDS011;7188;56.070;12.698;2022-09-12T10:11:58;1.50;;;1.10;;
14209;SDS011;7188;56.070;12.698;2022-09-12T10:14:31;0.70;;;0.70;;
14209;SDS011;7188;56.070;12.698;2022-09-12T10:17:22;1.55;;;1.13;;
14209;SDS011;7188;56.070;12.698;2022-09-12T10:19:51;0.85;;;0.60;;
14209;SDS011;7188;56.070;12.698;2022-09-12T10:22:18;0.85;;;0.85;;
14209;SDS011;7188;56.070;12.698;2022-09-12T10:24:47;1.20;;;1.10;;
14209;SDS011;7188;56.070;12.698;2022-09-12T10:27:25;2.13;;;0.90;;
14209;SDS011;7188;56.070;12.698;2022-09-12T10:32:39;1.00;;;0.80;;
14209;SDS011;7188;56.070;12.698;2022-09-12T10:35:14;0.70;;;0.68;;
14209;SDS011;7188;56.070;12.698;2022-09-12T10:38:06;0.90;;;0.90;;
14209;SDS011;7188;56.070;12.698;2022-09-12T10:40:58;0.65;;;0.65;;
14209;SDS011;7188;56.070;12.698;2022-09-12T10:48:40;1.55;;;0.70;;
14209;SDS011;7188;56.070;12.698;2022-09-12T10:51:14;0.75;;;0.75;;
14209;SDS011;7188;56.070;12.698;2022-09-12T10:53:48;0.65;;;0.52;;
14209;SDS011;7188;56.070;12.698;2022-09-12T10:56:22;0.52;;;0.50;;
14209;SDS011;7188;56.070;12.698;2022-09-12T11:01:45;1.98;;;0.60;;
14209;SDS011;7188;56.070;12.698;2022-09-12T11:04:28;1.15;;;1.10;;
14209;SDS011;7188;56.070;12.698;2022-09-12T11:16:14;0.50;;;0.50;;
14209;SDS011;7188;56.070;12.698;2022-09-12T11:27:26;1.30;;;0.80;;
14209;SDS011;7188;56.070;12.698;2022-09-12T11:33:22;0.70;;;0.70;;
14209;SDS011;7188;56.070;12.698;2022-09-12T11:35:28;0.68;;;0.60;;
14209;SDS011;7188;56.070;12.698;2022-09-12T11:48:58;0.73;;;0.73;;
14209;SDS011;7188;56.070;12.698;2022-09-12T11:57:22;0.85;;;0.82;;
14209;SDS011;7188;56.070;12.698;2022-09-12T12:06:05;0.90;;;0.90;;
14209;SDS011;7188;56.070;12.698;2022-09-12T12:08:47;0.60;;;0.60;;
14209;SDS011;7188;56.070;12.698;2022-09-12T12:11:15;1.00;;;0.80;;
14209;SDS011;7188;56.070;12.698;2022-09-12T12:13:58;0.60;;;0.60;;
14209;SDS011;7188;56.070;12.698;2022-09-12T12:16:36;1.40;;;0.80;;
14209;SDS011;7188;56.070;12.698;2022-09-12T12:19:09;0.70;;;0.60;;
14209;SDS011;7188;56.070;12.698;2022-09-12T12:21:50;0.60;;;0.60;;
14209;SDS011;7188;56.070;12.698;2022-09-12T12:43:00;2.42;;;0.70;;
14209;SDS011;7188;56.070;12.698;2022-09-12T12:47:46;1.15;;;1.00;;
14209;SDS011;7188;56.070;12.698;2022-09-12T12:55:23;0.82;;;0.82;;
14209;SDS011;7188;56.070;12.698;2022-09-12T12:57:55;2.75;;;0.93;;
14209;SDS011;7188;56.070;12.698;2022-09-12T13:03:10;1.38;;;0.80;;
14209;SDS011;7188;56.070;12.698;2022-09-12T13:05:54;0.90;;;0.90;;
14209;SDS011;7188;56.070;12.698;2022-09-12T13:08:29;1.50;;;0.80;;
14209;SDS011;7188;56.070;12.698;2022-09-12T13:10:58;2.35;;;0.90;;
14209;SDS011;7188;56.070;12.698;2022-09-12T13:16:30;0.80;;;0.80;;
14209;SDS011;7188;56.070;12.698;2022-09-12T13:19:10;0.80;;;0.80;;
14209;SDS011;7188;56.070;12.698;2022-09-12T13:21:38;1.15;;;1.00;;
14209;SDS011;7188;56.070;12.698;2022-09-12T13:24:27;1.30;;;1.00;;
14209;SDS011;7188;56.070;12.698;2022-09-12T13:26:53;1.52;;;0.80;;
14209;SDS011;7188;56.070;12.698;2022-09-12T13:29:22;0.70;;;0.70;;
14209;SDS011;7188;56.070;12.698;2022-09-12T13:31:59;2.80;;;1.05;;
14209;SDS011;7188;56.070;12.698;2022-09-12T13:34:33;1.05;;;1.02;;
14209;SDS011;7188;56.070;12.698;2022-09-12T13:40:01;1.70;;;1.17;;
14209;SDS011;7188;56.070;12.698;2022-09-12T13:42:51;2.50;;;0.95;;
14209;SDS011;7188;56.070;12.698;2022-09-12T13:45:31;2.50;;;1.33;;
14209;SDS011;7188;56.070;12.698;2022-09-12T13:48:01;1.33;;;1.23;;
14209;SDS011;7188;56.070;12.698;2022-09-12T13:50:29;0.90;;;0.90;;
14209;SDS011;7188;56.070;12.698;2022-09-12T13:53:19;2.60;;;1.30;;
14209;SDS011;7188;56.070;12.698;2022-09-12T13:55:54;3.33;;;1.55;;
14209;SDS011;7188;56.070;12.698;2022-09-12T13:58:26;4.25;;;1.75;;
14209;SDS011;7188;56.070;12.698;2022-09-12T14:01:00;2.08;;;1.63;;
14209;SDS011;7188;56.070;12.698;2022-09-12T14:03:41;4.10;;;2.10;;
14209;SDS011;7188;56.070;12.698;2022-09-12T14:06:50;1.65;;;1.55;;
14209;SDS011;7188;56.070;12.698;2022-09-12T14:09:27;3.95;;;1.25;;
14209;SDS011;7188;56.070;12.698;2022-09-12T14:14:49;2.63;;;1.40;;
14209;SDS011;7188;56.070;12.698;2022-09-12T14:17:16;1.48;;;1.02;;
14209;SDS011;7188;56.070;12.698;2022-09-12T14:19:53;2.80;;;1.10;;
14209;SDS011;7188;56.070;12.698;2022-09-12T14:22:22;2.50;;;1.83;;
14209;SDS011;7188;56.070;12.698;2022-09-12T14:24:53;1.45;;;1.10;;
14209;SDS011;7188;56.070;12.698;2022-09-12T14:27:26;0.68;;;0.68;;
14209;SDS011;7188;56.070;12.698;2022-09-12T14:30:00;1.77;;;0.98;;
14209;SDS011;7188;56.070;12.698;2022-09-12T14:32:33;1.13;;;0.75;;
14209;SDS011;7188;56.070;12.698;2022-09-12T14:35:18;2.08;;;0.80;;
14209;SDS011;7188;56.070;12.698;2022-09-12T14:37:47;0.82;;;0.63;;
14209;SDS011;7188;56.070;12.698;2022-09-12T14:40:19;2.05;;;0.68;;
14209;SDS011;7188;56.070;12.698;2022-09-12T14:42:49;0.55;;;0.55;;
14209;SDS011;7188;56.070;12.698;2022-09-12T14:47:49;1.33;;;0.95;;
14209;SDS011;7188;56.070;12.698;2022-09-12T14:50:24;0.95;;;0.90;;
14209;SDS011;7188;56.070;12.698;2022-09-12T14:53:20;0.70;;;0.65;;
14209;SDS011;7188;56.070;12.698;2022-09-12T14:55:49;0.85;;;0.80;;
14209;SDS011;7188;56.070;12.698;2022-09-12T15:00:59;1.55;;;0.82;;
14209;SDS011;7188;56.070;12.698;2022-09-12T15:06:19;0.70;;;0.70;;
14209;SDS011;7188;56.070;12.698;2022-09-12T15:08:53;1.30;;;0.82;;
14209;SDS011;7188;56.070;12.698;2022-09-12T15:11:20;0.80;;;0.80;;
14209;SDS011;7188;56.070;12.698;2022-09-12T15:13:46;2.30;;;1.67;;
14209;SDS011;7188;56.070;12.698;2022-09-12T15:16:12;1.83;;;1.30;;
14209;SDS011;7188;56.070;12.698;2022-09-12T15:18:38;0.80;;;0.80;;
14209;SDS011;7188;56.070;12.698;2022-09-12T15:21:05;0.90;;;0.90;;
14209;SDS011;7188;56.070;12.698;2022-09-12T15:23:48;2.58;;;0.85;;
14209;SDS011;7188;56.070;12.698;2022-09-12T15:26:16;1.33;;;1.30;;
14209;SDS011;7188;56.070;12.698;2022-09-12T15:28:44;0.95;;;0.82;;
14209;SDS011;7188;56.070;12.698;2022-09-12T15:33:47;5.78;;;1.63;;
14209;SDS011;7188;56.070;12.698;2022-09-12T15:36:14;2.67;;;1.10;;
14209;SDS011;7188;56.070;12.698;2022-09-12T15:38:42;1.45;;;1.30;;
14209;SDS011;7188;56.070;12.698;2022-09-12T15:41:09;1.40;;;1.30;;
14209;SDS011;7188;56.070;12.698;2022-09-12T15:43:40;0.80;;;0.80;;
14209;SDS011;7188;56.070;12.698;2022-09-12T15:46:08;1.17;;;1.07;;
14209;SDS011;7188;56.070;12.698;2022-09-12T15:48:35;2.90;;;0.80;;
14209;SDS011;7188;56.070;12.698;2022-09-12T15:51:01;1.60;;;1.00;;
14209;SDS011;7188;56.070;12.698;2022-09-12T15:53:29;1.05;;;0.95;;
14209;SDS011;7188;56.070;12.698;2022-09-12T15:55:55;0.80;;;0.80;;
14209;SDS011;7188;56.070;12.698;2022-09-12T15:58:21;1.98;;;1.00;;
14209;SDS011;7188;56.070;12.698;2022-09-12T16:00:47;1.23;;;0.75;;
14209;SDS011;7188;56.070;12.698;2022-09-12T16:03:23;0.80;;;0.80;;
14209;SDS011;7188;56.070;12.698;2022-09-12T16:05:54;0.80;;;0.80;;
14209;SDS011;7188;56.070;12.698;2022-09-12T16:08:21;1.20;;;0.70;;
14209;SDS011;7188;56.070;12.698;2022-09-12T16:10:48;2.25;;;0.90;;
14209;SDS011;7188;56.070;12.698;2022-09-12T16:13:17;1.13;;;0.70;;
14209;SDS011;7188;56.070;12.698;2022-09-12T16:15:42;0.65;;;0.65;;
14209;SDS011;7188;56.070;12.698;2022-09-12T16:18:08;1.17;;;0.80;;
14209;SDS011;7188;56.070;12.698;2022-09-12T16:20:34;1.35;;;0.85;;
14209;SDS011;7188;56.070;12.698;2022-09-12T16:23:02;2.05;;;0.80;;
14209;SDS011;7188;56.070;12.698;2022-09-12T16:25:27;2.35;;;0.80;;
14209;SDS011;7188;56.070;12.698;2022-09-12T16:27:53;2.17;;;0.98;;
14209;SDS011;7188;56.070;12.698;2022-09-12T16:30:19;1.33;;;1.20;;
14209;SDS011;7188;56.070;12.698;2022-09-12T16:32:44;1.07;;;0.70;;
14209;SDS011;7188;56.070;12.698;2022-09-12T16:35:10;2.03;;;0.80;;
14209;SDS011;7188;56.070;12.698;2022-09-12T16:37:36;1.80;;;0.85;;
14209;SDS011;7188;56.070;12.698;2022-09-12T16:40:02;1.27;;;0.60;;
14209;SDS011;7188;56.070;12.698;2022-09-12T16:42:29;0.68;;;0.55;;
14209;SDS011;7188;56.070;12.698;2022-09-12T16:44:55;0.83;;;0.83;;
14209;SDS011;7188;56.070;12.698;2022-09-12T16:47:21;2.03;;;0.80;;
14209;SDS011;7188;56.070;12.698;2022-09-12T16:49:47;1.97;;;0.67;;
14209;SDS011;7188;56.070;12.698;2022-09-12T16:52:12;0.90;;;0.65;;
14209;SDS011;7188;56.070;12.698;2022-09-12T16:54:40;2.05;;;0.50;;
14209;SDS011;7188;56.070;12.698;2022-09-12T16:57:08;0.73;;;0.63;;
14209;SDS011;7188;56.070;12.698;2022-09-12T16:59:34;0.50;;;0.50;;
14209;SDS011;7188;56.070;12.698;2022-09-12T17:02:00;0.82;;;0.65;;
14209;SDS011;7188;56.070;12.698;2022-09-12T17:04:26;0.73;;;0.60;;
14209;SDS011;7188;56.070;12.698;2022-09-12T17:06:52;0.43;;;0.30;;
14209;SDS011;7188;56.070;12.698;2022-09-12T17:09:18;1.50;;;0.97;;
14209;SDS011;7188;56.070;12.698;2022-09-12T17:11:44;1.95;;;0.70;;
14209;SDS011;7188;56.070;12.698;2022-09-12T17:14:14;0.80;;;0.52;;
14209;SDS011;7188;56.070;12.698;2022-09-12T17:16:41;0.75;;;0.70;;
14209;SDS011;7188;56.070;12.698;2022-09-12T17:19:11;0.67;;;0.60;;
14209;SDS011;7188;56.070;12.698;2022-09-12T17:21:39;2.25;;;0.70;;
14209;SDS011;7188;56.070;12.698;2022-09-12T17:24:05;1.07;;;0.60;;
14209;SDS011;7188;56.070;12.698;2022-09-12T17:26:31;1.90;;;0.60;;
14209;SDS011;7188;56.070;12.698;2022-09-12T17:28:56;1.70;;;0.70;;
14209;SDS011;7188;56.070;12.698;2022-09-12T17:31:22;1.33;;;0.80;;
14209;SDS011;7188;56.070;12.698;2022-09-12T17:33:47;1.20;;;1.10;;
14209;SDS011;7188;56.070;12.698;2022-09-12T17:36:14;1.50;;;0.73;;
14209;SDS011;7188;56.070;12.698;2022-09-12T17:38:42;1.30;;;0.70;;
14209;SDS011;7188;56.070;12.698;2022-09-12T17:41:10;1.50;;;0.70;;
14209;SDS011;7188;56.070;12.698;2022-09-12T17:43:42;0.80;;;0.80;;
14209;SDS011;7188;56.070;12.698;2022-09-12T17:46:10;0.60;;;0.60;;
14209;SDS011;7188;56.070;12.698;2022-09-12T17:48:35;2.20;;;0.93;;
14209;SDS011;7188;56.070;12.698;2022-09-12T17:51:05;0.73;;;0.70;;
14209;SDS011;7188;56.070;12.698;2022-09-12T17:53:40;3.08;;;0.77;;
14209;SDS011;7188;56.070;12.698;2022-09-12T17:56:06;0.80;;;0.80;;
14209;SDS011;7188;56.070;12.698;2022-09-12T17:58:33;0.77;;;0.77;;
14209;SDS011;7188;56.070;12.698;2022-09-12T18:01:01;1.57;;;1.20;;
14209;SDS011;7188;56.070;12.698;2022-09-12T18:03:53;1.80;;;0.83;;
14209;SDS011;7188;56.070;12.698;2022-09-12T18:06:21;2.50;;;0.70;;
14209;SDS011;7188;56.070;12.698;2022-09-12T18:08:50;2.83;;;1.70;;
14209;SDS011;7188;56.070;12.698;2022-09-12T18:11:19;4.83;;;1.20;;
14209;SDS011;7188;56.070;12.698;2022-09-12T18:13:45;1.90;;;0.90;;
14209;SDS011;7188;56.070;12.698;2022-09-12T18:16:11;0.80;;;0.67;;
14209;SDS011;7188;56.070;12.698;2022-09-12T18:18:37;1.47;;;1.03;;